sensor_id;sensor_type;location;lat;lon;timestamp;temperature;humidity
18126;DHT22;53956;52.442;13.284;2023-02-11T00:02:31;6.70;96.90
18126;DHT22;53956;52.442;13.284;2023-02-11T00:05:06;6.50;96.60
18126;DHT22;53956;52.442;13.284;2023-02-11T00:07:35;6.70;96.10
18126;DHT22;53956;52.442;13.284;2023-02-11T00:10:09;6.60;96.60
18126;DHT22;53956;52.442;13.284;2023-02-11T00:12:41;6.50;96.40
18126;DHT22;53956;52.442;13.284;2023-02-11T00:15:11;6.70;96.40
18126;DHT22;53956;52.442;13.284;2023-02-11T00:17:50;6.60;95.80
18126;DHT22;53956;52.442;13.284;2023-02-11T00:20:23;6.40;97.10
18126;DHT22;53956;52.442;13.284;2023-02-11T00:22:51;6.40;96.50
18126;DHT22;53956;52.442;13.284;2023-02-11T00:25:18;6.70;97.10
18126;DHT22;53956;52.442;13.284;2023-02-11T00:27:45;6.70;97.00
18126;DHT22;53956;52.442;13.284;2023-02-11T00:30:12;6.50;96.80
18126;DHT22;53956;52.442;13.284;2023-02-11T00:32:40;6.60;96.40
18126;DHT22;53956;52.442;13.284;2023-02-11T00:35:09;6.60;96.80
18126;DHT22;53956;52.442;13.284;2023-02-11T00:37:45;6.90;96.70
18126;DHT22;53956;52.442;13.284;2023-02-11T00:40:15;6.80;96.30
18126;DHT22;53956;52.442;13.284;2023-02-11T00:42:44;6.80;96.50
18126;DHT22;53956;52.442;13.284;2023-02-11T00:45:15;6.80;97.10
18126;DHT22;53956;52.442;13.284;2023-02-11T00:47:48;6.70;97.00
18126;DHT22;53956;52.442;13.284;2023-02-11T00:50:20;6.60;96.20
18126;DHT22;53956;52.442;13.284;2023-02-11T00:52:49;6.70;97.20
18126;DHT22;53956;52.442;13.284;2023-02-11T00:55:16;7.00;96.40
18126;DHT22;53956;52.442;13.284;2023-02-11T00:57:43;6.70;96.80
18126;DHT22;53956;52.442;13.284;2023-02-11T01:00:11;6.70;97.80
18126;DHT22;53956;52.442;13.284;2023-02-11T01:02:39;6.60;97.20
18126;DHT22;53956;52.442;13.284;2023-02-11T01:05:06;6.70;97.10
18126;DHT22;53956;52.442;13.284;2023-02-11T01:07:34;6.80;97.00
18126;DHT22;53956;52.442;13.284;2023-02-11T01:10:01;6.70;96.90
18126;DHT22;53956;52.442;13.284;2023-02-11T01:12:28;6.80;97.00
18126;DHT22;53956;52.442;13.284;2023-02-11T01:14:57;6.60;96.90
18126;DHT22;53956;52.442;13.284;2023-02-11T01:17:23;6.60;97.10
18126;DHT22;53956;52.442;13.284;2023-02-11T01:19:50;6.70;97.60
18126;DHT22;53956;52.442;13.284;2023-02-11T01:22:17;6.90;97.10
18126;DHT22;53956;52.442;13.284;2023-02-11T01:24:47;6.80;97.50
18126;DHT22;53956;52.442;13.284;2023-02-11T01:27:14;6.90;97.10
18126;DHT22;53956;52.442;13.284;2023-02-11T01:29:40;6.80;97.40
18126;DHT22;53956;52.442;13.284;2023-02-11T01:32:07;6.90;97.30
18126;DHT22;53956;52.442;13.284;2023-02-11T01:34:33;7.00;97.60
18126;DHT22;53956;52.442;13.284;2023-02-11T01:37:00;7.00;98.20
18126;DHT22;53956;52.442;13.284;2023-02-11T01:39:28;6.90;97.70
18126;DHT22;53956;52.442;13.284;2023-02-11T01:41:55;6.90;97.70
18126;DHT22;53956;52.442;13.284;2023-02-11T01:44:25;7.00;97.50
18126;DHT22;53956;52.442;13.284;2023-02-11T01:46:52;7.00;97.50
18126;DHT22;53956;52.442;13.284;2023-02-11T01:49:23;7.10;97.90
18126;DHT22;53956;52.442;13.284;2023-02-11T01:51:53;7.00;97.80
18126;DHT22;53956;52.442;13.284;2023-02-11T01:54:24;7.10;98.30
18126;DHT22;53956;52.442;13.284;2023-02-11T01:57:12;7.00;97.40
18126;DHT22;53956;52.442;13.284;2023-02-11T02:00:00;7.00;97.80
18126;DHT22;53956;52.442;13.284;2023-02-11T02:02:43;7.20;97.90
18126;DHT22;53956;52.442;13.284;2023-02-11T02:05:18;7.10;97.70
18126;DHT22;53956;52.442;13.284;2023-02-11T02:07:51;7.10;98.20
18126;DHT22;53956;52.442;13.284;2023-02-11T02:10:24;7.10;97.90
18126;DHT22;53956;52.442;13.284;2023-02-11T02:12:53;7.00;98.30
18126;DHT22;53956;52.442;13.284;2023-02-11T02:15:23;7.20;98.40
18126;DHT22;53956;52.442;13.284;2023-02-11T02:17:58;7.10;98.10
18126;DHT22;53956;52.442;13.284;2023-02-11T02:20:51;7.20;98.20
18126;DHT22;53956;52.442;13.284;2023-02-11T02:23:34;7.30;98.90
18126;DHT22;53956;52.442;13.284;2023-02-11T02:26:23;7.10;98.80
18126;DHT22;53956;52.442;13.284;2023-02-11T02:32:15;7.20;99.00
18126;DHT22;53956;52.442;13.284;2023-02-11T02:34:48;7.30;99.50
18126;DHT22;53956;52.442;13.284;2023-02-11T02:37:18;7.30;99.10
18126;DHT22;53956;52.442;13.284;2023-02-11T02:39:48;7.30;99.20
18126;DHT22;53956;52.442;13.284;2023-02-11T02:42:17;7.30;99.30
18126;DHT22;53956;52.442;13.284;2023-02-11T02:44:47;7.30;99.20
18126;DHT22;53956;52.442;13.284;2023-02-11T02:47:15;7.30;99.40
18126;DHT22;53956;52.442;13.284;2023-02-11T02:49:43;7.30;99.50
18126;DHT22;53956;52.442;13.284;2023-02-11T02:52:17;7.30;99.60
18126;DHT22;53956;52.442;13.284;2023-02-11T02:55:11;7.40;99.20
18126;DHT22;53956;52.442;13.284;2023-02-11T02:57:54;7.40;99.50
18126;DHT22;53956;52.442;13.284;2023-02-11T03:00:26;7.30;99.70
18126;DHT22;53956;52.442;13.284;2023-02-11T03:03:07;7.40;99.70
18126;DHT22;53956;52.442;13.284;2023-02-11T03:05:43;7.50;99.90
18126;DHT22;53956;52.442;13.284;2023-02-11T03:08:17;7.30;99.90
18126;DHT22;53956;52.442;13.284;2023-02-11T03:10:49;7.40;99.90
18126;DHT22;53956;52.442;13.284;2023-02-11T03:13:19;7.30;99.90
18126;DHT22;53956;52.442;13.284;2023-02-11T03:15:50;7.30;99.90
18126;DHT22;53956;52.442;13.284;2023-02-11T03:18:24;7.40;99.90
18126;DHT22;53956;52.442;13.284;2023-02-11T03:20:53;7.20;99.90
18126;DHT22;53956;52.442;13.284;2023-02-11T03:23:27;7.50;99.90
18126;DHT22;53956;52.442;13.284;2023-02-11T03:25:57;7.50;99.90
18126;DHT22;53956;52.442;13.284;2023-02-11T03:28:29;7.60;99.90
18126;DHT22;53956;52.442;13.284;2023-02-11T03:31:05;7.50;99.90
18126;DHT22;53956;52.442;13.284;2023-02-11T03:33:40;7.50;99.90
18126;DHT22;53956;52.442;13.284;2023-02-11T03:36:12;7.30;99.90
18126;DHT22;53956;52.442;13.284;2023-02-11T03:38:46;7.50;99.90
18126;DHT22;53956;52.442;13.284;2023-02-11T03:41:15;7.50;99.90
18126;DHT22;53956;52.442;13.284;2023-02-11T03:43:44;7.60;99.90
18126;DHT22;53956;52.442;13.284;2023-02-11T03:46:17;7.50;99.90
18126;DHT22;53956;52.442;13.284;2023-02-11T03:48:48;7.50;99.90
18126;DHT22;53956;52.442;13.284;2023-02-11T03:51:17;7.50;99.90
18126;DHT22;53956;52.442;13.284;2023-02-11T03:53:46;7.70;99.90
18126;DHT22;53956;52.442;13.284;2023-02-11T03:56:17;7.40;99.90
18126;DHT22;53956;52.442;13.284;2023-02-11T03:58:44;7.40;99.90
18126;DHT22;53956;52.442;13.284;2023-02-11T04:01:11;7.50;99.90
18126;DHT22;53956;52.442;13.284;2023-02-11T04:03:38;7.40;99.90
18126;DHT22;53956;52.442;13.284;2023-02-11T04:06:07;7.60;99.90
18126;DHT22;53956;52.442;13.284;2023-02-11T04:08:34;7.60;99.90
18126;DHT22;53956;52.442;13.284;2023-02-11T04:11:00;7.50;99.90
18126;DHT22;53956;52.442;13.284;2023-02-11T04:13:27;7.50;99.90
18126;DHT22;53956;52.442;13.284;2023-02-11T04:15:53;7.40;99.90
18126;DHT22;53956;52.442;13.284;2023-02-11T04:18:20;7.60;99.90
18126;DHT22;53956;52.442;13.284;2023-02-11T04:20:47;7.70;99.90
18126;DHT22;53956;52.442;13.284;2023-02-11T04:23:15;7.60;99.90
18126;DHT22;53956;52.442;13.284;2023-02-11T04:25:42;7.60;99.90
18126;DHT22;53956;52.442;13.284;2023-02-11T04:28:09;7.60;99.90
18126;DHT22;53956;52.442;13.284;2023-02-11T04:30:35;7.60;99.90
18126;DHT22;53956;52.442;13.284;2023-02-11T04:33:02;7.60;99.90
18126;DHT22;53956;52.442;13.284;2023-02-11T04:35:29;7.60;99.90
18126;DHT22;53956;52.442;13.284;2023-02-11T04:37:55;7.70;99.90
18126;DHT22;53956;52.442;13.284;2023-02-11T04:40:23;7.60;99.90
18126;DHT22;53956;52.442;13.284;2023-02-11T04:42:50;7.70;99.90
18126;DHT22;53956;52.442;13.284;2023-02-11T04:45:17;7.60;99.90
18126;DHT22;53956;52.442;13.284;2023-02-11T04:47:43;7.70;99.90
18126;DHT22;53956;52.442;13.284;2023-02-11T04:50:10;7.60;99.90
18126;DHT22;53956;52.442;13.284;2023-02-11T04:52:37;7.70;99.90
18126;DHT22;53956;52.442;13.284;2023-02-11T04:55:04;7.60;99.90
18126;DHT22;53956;52.442;13.284;2023-02-11T04:57:32;7.70;99.90
18126;DHT22;53956;52.442;13.284;2023-02-11T04:59:59;7.70;99.90
18126;DHT22;53956;52.442;13.284;2023-02-11T05:02:25;7.80;99.90
18126;DHT22;53956;52.442;13.284;2023-02-11T05:04:52;7.80;99.90
18126;DHT22;53956;52.442;13.284;2023-02-11T05:07:18;7.60;99.90
18126;DHT22;53956;52.442;13.284;2023-02-11T05:09:45;7.70;99.90
18126;DHT22;53956;52.442;13.284;2023-02-11T05:12:12;7.70;99.90
18126;DHT22;53956;52.442;13.284;2023-02-11T05:14:40;7.60;99.90
18126;DHT22;53956;52.442;13.284;2023-02-11T05:17:06;7.60;99.90
18126;DHT22;53956;52.442;13.284;2023-02-11T05:19:33;7.80;99.90
18126;DHT22;53956;52.442;13.284;2023-02-11T05:21:59;7.50;99.90
18126;DHT22;53956;52.442;13.284;2023-02-11T05:24:26;7.60;99.90
18126;DHT22;53956;52.442;13.284;2023-02-11T05:26:53;7.60;99.90
18126;DHT22;53956;52.442;13.284;2023-02-11T05:29:19;7.60;99.90
18126;DHT22;53956;52.442;13.284;2023-02-11T05:31:47;7.70;99.90
18126;DHT22;53956;52.442;13.284;2023-02-11T05:34:14;7.50;99.90
18126;DHT22;53956;52.442;13.284;2023-02-11T05:36:40;7.70;99.90
18126;DHT22;53956;52.442;13.284;2023-02-11T05:39:07;7.70;99.90
18126;DHT22;53956;52.442;13.284;2023-02-11T05:41:33;7.70;99.90
18126;DHT22;53956;52.442;13.284;2023-02-11T05:44:00;7.70;99.90
18126;DHT22;53956;52.442;13.284;2023-02-11T05:46:27;7.60;99.90
18126;DHT22;53956;52.442;13.284;2023-02-11T05:48:55;7.70;99.90
18126;DHT22;53956;52.442;13.284;2023-02-11T05:51:21;7.70;99.90
18126;DHT22;53956;52.442;13.284;2023-02-11T05:53:49;7.70;99.90
18126;DHT22;53956;52.442;13.284;2023-02-11T05:56:16;7.50;99.90
18126;DHT22;53956;52.442;13.284;2023-02-11T05:58:43;7.60;99.90
18126;DHT22;53956;52.442;13.284;2023-02-11T06:01:09;7.70;99.90
18126;DHT22;53956;52.442;13.284;2023-02-11T06:03:36;7.60;99.90
18126;DHT22;53956;52.442;13.284;2023-02-11T06:06:08;7.50;99.90
18126;DHT22;53956;52.442;13.284;2023-02-11T06:08:34;7.70;99.90
18126;DHT22;53956;52.442;13.284;2023-02-11T06:11:01;7.60;99.90
18126;DHT22;53956;52.442;13.284;2023-02-11T06:13:27;7.70;99.90
18126;DHT22;53956;52.442;13.284;2023-02-11T06:15:55;7.60;99.90
18126;DHT22;53956;52.442;13.284;2023-02-11T06:18:22;7.50;99.90
18126;DHT22;53956;52.442;13.284;2023-02-11T06:20:49;7.60;99.90
18126;DHT22;53956;52.442;13.284;2023-02-11T06:23:17;7.70;99.90
18126;DHT22;53956;52.442;13.284;2023-02-11T06:25:44;7.70;99.90
18126;DHT22;53956;52.442;13.284;2023-02-11T06:28:10;7.80;99.90
18126;DHT22;53956;52.442;13.284;2023-02-11T06:30:37;7.70;99.90
18126;DHT22;53956;52.442;13.284;2023-02-11T06:33:04;7.80;99.90
18126;DHT22;53956;52.442;13.284;2023-02-11T06:35:31;7.80;99.90
18126;DHT22;53956;52.442;13.284;2023-02-11T06:37:59;7.60;99.90
18126;DHT22;53956;52.442;13.284;2023-02-11T06:40:27;7.70;99.90
18126;DHT22;53956;52.442;13.284;2023-02-11T06:42:54;7.80;99.90
18126;DHT22;53956;52.442;13.284;2023-02-11T06:45:21;7.50;99.90
18126;DHT22;53956;52.442;13.284;2023-02-11T06:47:50;7.70;99.90
18126;DHT22;53956;52.442;13.284;2023-02-11T06:50:17;7.80;99.90
18126;DHT22;53956;52.442;13.284;2023-02-11T06:52:43;7.60;99.90
18126;DHT22;53956;52.442;13.284;2023-02-11T06:55:10;7.80;99.90
18126;DHT22;53956;52.442;13.284;2023-02-11T06:57:38;7.90;99.90
18126;DHT22;53956;52.442;13.284;2023-02-11T07:00:06;8.10;99.90
18126;DHT22;53956;52.442;13.284;2023-02-11T07:02:32;7.90;99.90
18126;DHT22;53956;52.442;13.284;2023-02-11T07:04:59;8.00;99.90
18126;DHT22;53956;52.442;13.284;2023-02-11T07:07:26;7.90;99.90
18126;DHT22;53956;52.442;13.284;2023-02-11T07:09:53;7.80;99.90
18126;DHT22;53956;52.442;13.284;2023-02-11T07:12:20;7.80;99.90
18126;DHT22;53956;52.442;13.284;2023-02-11T07:14:47;7.90;99.90
18126;DHT22;53956;52.442;13.284;2023-02-11T07:17:14;7.60;99.90
18126;DHT22;53956;52.442;13.284;2023-02-11T07:19:41;7.80;99.90
18126;DHT22;53956;52.442;13.284;2023-02-11T07:22:07;7.90;99.90
18126;DHT22;53956;52.442;13.284;2023-02-11T07:24:34;7.90;99.90
18126;DHT22;53956;52.442;13.284;2023-02-11T07:27:01;7.90;99.90
18126;DHT22;53956;52.442;13.284;2023-02-11T07:29:27;7.90;99.90
18126;DHT22;53956;52.442;13.284;2023-02-11T07:31:55;7.90;99.90
18126;DHT22;53956;52.442;13.284;2023-02-11T07:34:22;7.80;99.90
18126;DHT22;53956;52.442;13.284;2023-02-11T07:36:49;7.80;99.90
18126;DHT22;53956;52.442;13.284;2023-02-11T07:39:15;8.00;99.90
18126;DHT22;53956;52.442;13.284;2023-02-11T07:41:42;7.90;99.90
18126;DHT22;53956;52.442;13.284;2023-02-11T07:44:12;8.00;99.90
18126;DHT22;53956;52.442;13.284;2023-02-11T07:46:39;8.00;99.90
18126;DHT22;53956;52.442;13.284;2023-02-11T07:49:08;8.00;99.90
18126;DHT22;53956;52.442;13.284;2023-02-11T07:51:35;8.00;99.90
18126;DHT22;53956;52.442;13.284;2023-02-11T07:54:02;8.10;99.90
18126;DHT22;53956;52.442;13.284;2023-02-11T07:56:29;8.10;99.90
18126;DHT22;53956;52.442;13.284;2023-02-11T07:58:59;8.00;99.90
18126;DHT22;53956;52.442;13.284;2023-02-11T08:01:26;8.10;99.90
18126;DHT22;53956;52.442;13.284;2023-02-11T08:03:54;8.10;99.90
18126;DHT22;53956;52.442;13.284;2023-02-11T08:06:24;8.30;99.90
18126;DHT22;53956;52.442;13.284;2023-02-11T08:08:52;8.20;99.90
18126;DHT22;53956;52.442;13.284;2023-02-11T08:11:20;8.00;99.90
18126;DHT22;53956;52.442;13.284;2023-02-11T08:13:48;8.20;99.90
18126;DHT22;53956;52.442;13.284;2023-02-11T08:16:18;8.20;99.90
18126;DHT22;53956;52.442;13.284;2023-02-11T08:18:45;8.20;99.90
18126;DHT22;53956;52.442;13.284;2023-02-11T08:21:12;8.20;99.90
18126;DHT22;53956;52.442;13.284;2023-02-11T08:23:42;8.20;99.90
18126;DHT22;53956;52.442;13.284;2023-02-11T08:26:10;8.20;99.90
18126;DHT22;53956;52.442;13.284;2023-02-11T08:28:38;8.20;99.90
18126;DHT22;53956;52.442;13.284;2023-02-11T08:31:07;8.20;99.90
18126;DHT22;53956;52.442;13.284;2023-02-11T08:33:34;8.30;99.90
18126;DHT22;53956;52.442;13.284;2023-02-11T08:36:06;8.30;99.90
18126;DHT22;53956;52.442;13.284;2023-02-11T08:38:32;8.30;99.90
18126;DHT22;53956;52.442;13.284;2023-02-11T08:41:00;8.20;99.90
18126;DHT22;53956;52.442;13.284;2023-02-11T08:43:27;8.30;99.90
18126;DHT22;53956;52.442;13.284;2023-02-11T08:45:54;8.30;99.90
18126;DHT22;53956;52.442;13.284;2023-02-11T08:48:20;8.30;99.90
18126;DHT22;53956;52.442;13.284;2023-02-11T08:50:47;8.30;99.90
18126;DHT22;53956;52.442;13.284;2023-02-11T08:53:13;8.20;99.90
18126;DHT22;53956;52.442;13.284;2023-02-11T08:55:47;8.30;99.90
18126;DHT22;53956;52.442;13.284;2023-02-11T08:58:15;8.40;99.90
18126;DHT22;53956;52.442;13.284;2023-02-11T09:00:42;8.20;99.90
18126;DHT22;53956;52.442;13.284;2023-02-11T09:03:09;8.30;99.90
18126;DHT22;53956;52.442;13.284;2023-02-11T09:05:39;8.40;99.90
18126;DHT22;53956;52.442;13.284;2023-02-11T09:08:06;8.40;99.90
18126;DHT22;53956;52.442;13.284;2023-02-11T09:10:33;8.30;99.90
18126;DHT22;53956;52.442;13.284;2023-02-11T09:12:59;8.30;99.90
18126;DHT22;53956;52.442;13.284;2023-02-11T09:15:27;8.30;99.90
18126;DHT22;53956;52.442;13.284;2023-02-11T09:17:54;8.40;99.90
18126;DHT22;53956;52.442;13.284;2023-02-11T09:20:21;8.40;99.90
18126;DHT22;53956;52.442;13.284;2023-02-11T09:22:48;8.40;99.90
18126;DHT22;53956;52.442;13.284;2023-02-11T09:25:14;8.30;99.90
18126;DHT22;53956;52.442;13.284;2023-02-11T09:27:41;8.30;99.90
18126;DHT22;53956;52.442;13.284;2023-02-11T09:30:09;8.40;99.90
18126;DHT22;53956;52.442;13.284;2023-02-11T09:32:37;8.40;99.90
18126;DHT22;53956;52.442;13.284;2023-02-11T09:35:04;8.40;99.90
18126;DHT22;53956;52.442;13.284;2023-02-11T09:37:31;8.40;99.90
18126;DHT22;53956;52.442;13.284;2023-02-11T09:39:57;8.40;99.90
18126;DHT22;53956;52.442;13.284;2023-02-11T09:42:42;8.50;99.90
18126;DHT22;53956;52.442;13.284;2023-02-11T09:45:14;8.50;99.90
18126;DHT22;53956;52.442;13.284;2023-02-11T09:47:48;8.20;99.90
18126;DHT22;53956;52.442;13.284;2023-02-11T09:50:21;8.40;99.90
18126;DHT22;53956;52.442;13.284;2023-02-11T09:52:51;8.40;99.90
18126;DHT22;53956;52.442;13.284;2023-02-11T09:55:24;8.40;99.90
18126;DHT22;53956;52.442;13.284;2023-02-11T09:57:52;8.50;99.90
18126;DHT22;53956;52.442;13.284;2023-02-11T10:00:21;8.50;99.90
18126;DHT22;53956;52.442;13.284;2023-02-11T10:03:03;8.50;99.90
18126;DHT22;53956;52.442;13.284;2023-02-11T10:05:43;8.60;99.90
18126;DHT22;53956;52.442;13.284;2023-02-11T10:08:19;8.40;99.90
18126;DHT22;53956;52.442;13.284;2023-02-11T10:10:51;8.60;99.90
18126;DHT22;53956;52.442;13.284;2023-02-11T10:13:29;8.60;99.90
18126;DHT22;53956;52.442;13.284;2023-02-11T10:16:03;8.50;99.90
18126;DHT22;53956;52.442;13.284;2023-02-11T10:18:49;8.60;99.90
18126;DHT22;53956;52.442;13.284;2023-02-11T10:21:25;8.60;99.90
18126;DHT22;53956;52.442;13.284;2023-02-11T10:23:58;8.60;99.90
18126;DHT22;53956;52.442;13.284;2023-02-11T10:26:26;8.50;99.90
18126;DHT22;53956;52.442;13.284;2023-02-11T10:28:59;8.60;99.90
18126;DHT22;53956;52.442;13.284;2023-02-11T10:31:35;8.70;99.90
18126;DHT22;53956;52.442;13.284;2023-02-11T10:34:06;8.60;99.90
18126;DHT22;53956;52.442;13.284;2023-02-11T10:36:36;8.70;99.90
18126;DHT22;53956;52.442;13.284;2023-02-11T10:39:11;8.70;99.90
18126;DHT22;53956;52.442;13.284;2023-02-11T10:41:41;8.70;99.90
18126;DHT22;53956;52.442;13.284;2023-02-11T10:44:18;8.60;99.90
18126;DHT22;53956;52.442;13.284;2023-02-11T10:46:48;8.60;99.90
18126;DHT22;53956;52.442;13.284;2023-02-11T10:49:34;8.60;99.90
18126;DHT22;53956;52.442;13.284;2023-02-11T10:52:17;8.60;99.90
18126;DHT22;53956;52.442;13.284;2023-02-11T10:55:00;8.70;99.90
18126;DHT22;53956;52.442;13.284;2023-02-11T10:57:31;8.70;99.90
18126;DHT22;53956;52.442;13.284;2023-02-11T11:00:03;8.70;99.90
18126;DHT22;53956;52.442;13.284;2023-02-11T11:02:32;8.70;99.90
18126;DHT22;53956;52.442;13.284;2023-02-11T11:05:03;8.80;99.90
18126;DHT22;53956;52.442;13.284;2023-02-11T11:07:32;8.70;99.90
18126;DHT22;53956;52.442;13.284;2023-02-11T11:10:01;8.80;99.90
18126;DHT22;53956;52.442;13.284;2023-02-11T11:12:35;8.70;99.90
18126;DHT22;53956;52.442;13.284;2023-02-11T11:15:15;8.70;99.90
18126;DHT22;53956;52.442;13.284;2023-02-11T11:17:43;8.70;99.90
18126;DHT22;53956;52.442;13.284;2023-02-11T11:20:17;8.70;99.90
18126;DHT22;53956;52.442;13.284;2023-02-11T11:22:45;8.70;99.90
18126;DHT22;53956;52.442;13.284;2023-02-11T11:25:24;8.80;99.90
18126;DHT22;53956;52.442;13.284;2023-02-11T11:27:53;8.70;99.90
18126;DHT22;53956;52.442;13.284;2023-02-11T11:30:22;8.90;99.90
18126;DHT22;53956;52.442;13.284;2023-02-11T11:32:51;8.60;99.90
18126;DHT22;53956;52.442;13.284;2023-02-11T11:35:24;8.70;99.90
18126;DHT22;53956;52.442;13.284;2023-02-11T11:37:53;8.80;99.90
18126;DHT22;53956;52.442;13.284;2023-02-11T11:40:24;8.80;99.90
18126;DHT22;53956;52.442;13.284;2023-02-11T11:43:08;8.80;99.90
18126;DHT22;53956;52.442;13.284;2023-02-11T11:45:52;8.70;99.90
18126;DHT22;53956;52.442;13.284;2023-02-11T11:48:22;8.80;99.90
18126;DHT22;53956;52.442;13.284;2023-02-11T11:50:53;8.80;99.90
18126;DHT22;53956;52.442;13.284;2023-02-11T11:53:24;8.80;99.90
18126;DHT22;53956;52.442;13.284;2023-02-11T11:55:59;8.70;99.90
18126;DHT22;53956;52.442;13.284;2023-02-11T11:58:28;8.80;99.90
18126;DHT22;53956;52.442;13.284;2023-02-11T12:01:03;8.90;99.90
18126;DHT22;53956;52.442;13.284;2023-02-11T12:04:04;8.70;99.90
18126;DHT22;53956;52.442;13.284;2023-02-11T12:06:42;8.70;99.90
18126;DHT22;53956;52.442;13.284;2023-02-11T12:09:21;8.70;99.90
18126;DHT22;53956;52.442;13.284;2023-02-11T12:12:13;8.90;99.90
18126;DHT22;53956;52.442;13.284;2023-02-11T12:14:51;8.90;99.90
18126;DHT22;53956;52.442;13.284;2023-02-11T12:17:34;8.80;99.90
18126;DHT22;53956;52.442;13.284;2023-02-11T12:20:22;8.80;99.90
18126;DHT22;53956;52.442;13.284;2023-02-11T12:23:02;8.90;99.90
18126;DHT22;53956;52.442;13.284;2023-02-11T12:25:33;8.80;99.90
18126;DHT22;53956;52.442;13.284;2023-02-11T12:28:14;8.80;99.90
18126;DHT22;53956;52.442;13.284;2023-02-11T12:33:55;8.90;99.90
18126;DHT22;53956;52.442;13.284;2023-02-11T12:36:36;8.90;99.90
18126;DHT22;53956;52.442;13.284;2023-02-11T12:39:19;8.90;99.90
18126;DHT22;53956;52.442;13.284;2023-02-11T12:42:02;9.00;99.90
18126;DHT22;53956;52.442;13.284;2023-02-11T12:45:01;9.00;99.90
18126;DHT22;53956;52.442;13.284;2023-02-11T12:47:40;9.00;99.90
18126;DHT22;53956;52.442;13.284;2023-02-11T12:50:17;9.00;99.90
18126;DHT22;53956;52.442;13.284;2023-02-11T12:53:00;9.00;99.90
18126;DHT22;53956;52.442;13.284;2023-02-11T12:55:34;9.10;99.90
18126;DHT22;53956;52.442;13.284;2023-02-11T12:58:03;9.00;99.90
18126;DHT22;53956;52.442;13.284;2023-02-11T13:00:41;9.10;99.90
18126;DHT22;53956;52.442;13.284;2023-02-11T13:03:12;9.00;99.90
18126;DHT22;53956;52.442;13.284;2023-02-11T13:05:44;9.10;99.90
18126;DHT22;53956;52.442;13.284;2023-02-11T13:08:14;9.10;99.90
18126;DHT22;53956;52.442;13.284;2023-02-11T13:10:45;9.10;99.90
18126;DHT22;53956;52.442;13.284;2023-02-11T13:13:16;9.10;99.90
18126;DHT22;53956;52.442;13.284;2023-02-11T13:15:49;9.00;99.90
18126;DHT22;53956;52.442;13.284;2023-02-11T13:18:26;9.20;99.90
18126;DHT22;53956;52.442;13.284;2023-02-11T13:21:00;9.10;99.90
18126;DHT22;53956;52.442;13.284;2023-02-11T13:23:36;9.10;99.90
18126;DHT22;53956;52.442;13.284;2023-02-11T13:26:11;9.20;99.90
18126;DHT22;53956;52.442;13.284;2023-02-11T13:28:45;9.10;99.90
18126;DHT22;53956;52.442;13.284;2023-02-11T13:31:14;9.20;99.90
18126;DHT22;53956;52.442;13.284;2023-02-11T13:33:44;9.20;99.90
18126;DHT22;53956;52.442;13.284;2023-02-11T13:36:23;9.00;99.90
18126;DHT22;53956;52.442;13.284;2023-02-11T13:38:53;9.20;99.90
18126;DHT22;53956;52.442;13.284;2023-02-11T13:41:28;9.10;99.90
18126;DHT22;53956;52.442;13.284;2023-02-11T13:44:24;9.20;99.90
18126;DHT22;53956;52.442;13.284;2023-02-11T13:46:57;9.20;99.90
18126;DHT22;53956;52.442;13.284;2023-02-11T13:49:30;9.20;99.90
18126;DHT22;53956;52.442;13.284;2023-02-11T13:51:58;9.10;99.90
18126;DHT22;53956;52.442;13.284;2023-02-11T13:54:29;9.20;99.90
18126;DHT22;53956;52.442;13.284;2023-02-11T13:57:28;9.20;99.90
18126;DHT22;53956;52.442;13.284;2023-02-11T13:59:56;9.20;99.90
18126;DHT22;53956;52.442;13.284;2023-02-11T14:02:29;9.20;99.90
18126;DHT22;53956;52.442;13.284;2023-02-11T14:05:28;9.20;99.90
18126;DHT22;53956;52.442;13.284;2023-02-11T14:08:23;9.10;99.90
18126;DHT22;53956;52.442;13.284;2023-02-11T14:14:17;9.20;99.90
18126;DHT22;53956;52.442;13.284;2023-02-11T14:19:46;9.20;99.90
18126;DHT22;53956;52.442;13.284;2023-02-11T14:22:16;9.20;99.90
18126;DHT22;53956;52.442;13.284;2023-02-11T14:24:49;9.30;99.90
18126;DHT22;53956;52.442;13.284;2023-02-11T14:27:24;9.20;99.90
18126;DHT22;53956;52.442;13.284;2023-02-11T14:30:17;9.20;99.90
18126;DHT22;53956;52.442;13.284;2023-02-11T14:33:08;9.20;99.90
18126;DHT22;53956;52.442;13.284;2023-02-11T14:35:46;9.20;99.90
18126;DHT22;53956;52.442;13.284;2023-02-11T14:38:22;9.10;99.90
18126;DHT22;53956;52.442;13.284;2023-02-11T14:40:55;9.20;99.90
18126;DHT22;53956;52.442;13.284;2023-02-11T14:43:28;9.20;99.90
18126;DHT22;53956;52.442;13.284;2023-02-11T14:45:59;9.20;99.90
18126;DHT22;53956;52.442;13.284;2023-02-11T14:48:28;9.20;99.90
18126;DHT22;53956;52.442;13.284;2023-02-11T14:51:01;9.30;99.90
18126;DHT22;53956;52.442;13.284;2023-02-11T14:53:30;9.20;99.90
18126;DHT22;53956;52.442;13.284;2023-02-11T14:55:57;9.30;99.90
18126;DHT22;53956;52.442;13.284;2023-02-11T14:58:25;9.10;99.90
18126;DHT22;53956;52.442;13.284;2023-02-11T15:00:54;9.20;99.90
18126;DHT22;53956;52.442;13.284;2023-02-11T15:03:32;9.30;99.90
18126;DHT22;53956;52.442;13.284;2023-02-11T15:06:00;9.20;99.90
18126;DHT22;53956;52.442;13.284;2023-02-11T15:08:29;9.30;99.90
18126;DHT22;53956;52.442;13.284;2023-02-11T15:10:57;9.30;99.90
18126;DHT22;53956;52.442;13.284;2023-02-11T15:13:25;9.30;99.90
18126;DHT22;53956;52.442;13.284;2023-02-11T15:15:58;9.30;99.90
18126;DHT22;53956;52.442;13.284;2023-02-11T15:18:31;9.30;99.90
18126;DHT22;53956;52.442;13.284;2023-02-11T15:20:59;9.30;99.90
18126;DHT22;53956;52.442;13.284;2023-02-11T15:23:27;9.30;99.90
18126;DHT22;53956;52.442;13.284;2023-02-11T15:25:55;9.30;99.90
18126;DHT22;53956;52.442;13.284;2023-02-11T15:28:24;9.30;99.90
18126;DHT22;53956;52.442;13.284;2023-02-11T15:30:59;9.30;99.90
18126;DHT22;53956;52.442;13.284;2023-02-11T15:33:26;9.30;99.90
18126;DHT22;53956;52.442;13.284;2023-02-11T15:35:58;9.30;99.90
18126;DHT22;53956;52.442;13.284;2023-02-11T15:38:25;9.30;99.90
18126;DHT22;53956;52.442;13.284;2023-02-11T15:40:54;9.10;99.90
18126;DHT22;53956;52.442;13.284;2023-02-11T15:43:21;9.30;99.90
18126;DHT22;53956;52.442;13.284;2023-02-11T15:45:59;9.20;99.90
18126;DHT22;53956;52.442;13.284;2023-02-11T15:48:33;9.30;99.90
18126;DHT22;53956;52.442;13.284;2023-02-11T15:51:07;9.30;99.90
18126;DHT22;53956;52.442;13.284;2023-02-11T15:53:38;9.20;99.90
18126;DHT22;53956;52.442;13.284;2023-02-11T15:56:10;9.20;99.90
18126;DHT22;53956;52.442;13.284;2023-02-11T15:58:42;9.30;99.90
18126;DHT22;53956;52.442;13.284;2023-02-11T16:01:11;9.30;99.90
18126;DHT22;53956;52.442;13.284;2023-02-11T16:03:39;9.20;99.90
18126;DHT22;53956;52.442;13.284;2023-02-11T16:06:19;9.30;99.90
18126;DHT22;53956;52.442;13.284;2023-02-11T16:08:58;9.20;99.90